sensor_id;sensor_type;location;lat;lon;timestamp;temperature;humidity
24402;DHT22;12539;48.808;11.292;2022-07-30T00:02:15;22.30;71.80
24402;DHT22;12539;48.808;11.292;2022-07-30T00:04:41;22.20;72.30
24402;DHT22;12539;48.808;11.292;2022-07-30T00:07:08;22.00;73.50
24402;DHT22;12539;48.808;11.292;2022-07-30T00:09:34;22.00;73.80
24402;DHT22;12539;48.808;11.292;2022-07-30T00:12:00;22.00;74.20
24402;DHT22;12539;48.808;11.292;2022-07-30T00:14:25;21.90;74.20
24402;DHT22;12539;48.808;11.292;2022-07-30T00:16:52;21.90;74.30
24402;DHT22;12539;48.808;11.292;2022-07-30T00:19:18;21.80;74.30
24402;DHT22;12539;48.808;11.292;2022-07-30T00:21:44;21.80;74.70
24402;DHT22;12539;48.808;11.292;2022-07-30T00:24:10;21.70;74.80
24402;DHT22;12539;48.808;11.292;2022-07-30T00:26:36;21.70;74.90
24402;DHT22;12539;48.808;11.292;2022-07-30T00:29:02;21.60;75.10
24402;DHT22;12539;48.808;11.292;2022-07-30T00:31:28;21.60;75.50
24402;DHT22;12539;48.808;11.292;2022-07-30T00:33:54;21.50;75.60
24402;DHT22;12539;48.808;11.292;2022-07-30T00:36:20;21.50;75.90
24402;DHT22;12539;48.808;11.292;2022-07-30T00:38:46;21.40;76.20
24402;DHT22;12539;48.808;11.292;2022-07-30T00:41:11;21.40;76.50
24402;DHT22;12539;48.808;11.292;2022-07-30T00:43:37;21.30;76.90
24402;DHT22;12539;48.808;11.292;2022-07-30T00:46:03;21.20;77.30
24402;DHT22;12539;48.808;11.292;2022-07-30T00:48:28;21.20;77.50
24402;DHT22;12539;48.808;11.292;2022-07-30T00:50:54;21.20;77.90
24402;DHT22;12539;48.808;11.292;2022-07-30T00:53:20;21.10;78.20
24402;DHT22;12539;48.808;11.292;2022-07-30T00:55:45;21.10;78.50
24402;DHT22;12539;48.808;11.292;2022-07-30T00:58:11;21.10;78.60
24402;DHT22;12539;48.808;11.292;2022-07-30T01:00:37;21.10;78.80
24402;DHT22;12539;48.808;11.292;2022-07-30T01:03:02;21.10;79.20
24402;DHT22;12539;48.808;11.292;2022-07-30T01:05:29;21.00;79.70
24402;DHT22;12539;48.808;11.292;2022-07-30T01:07:55;21.00;79.70
24402;DHT22;12539;48.808;11.292;2022-07-30T01:10:21;21.00;79.80
24402;DHT22;12539;48.808;11.292;2022-07-30T01:12:47;21.00;80.30
24402;DHT22;12539;48.808;11.292;2022-07-30T01:15:13;21.10;80.80
24402;DHT22;12539;48.808;11.292;2022-07-30T01:17:39;21.20;80.50
24402;DHT22;12539;48.808;11.292;2022-07-30T01:20:26;21.40;79.80
24402;DHT22;12539;48.808;11.292;2022-07-30T01:28:21;22.20;75.80
24402;DHT22;12539;48.808;11.292;2022-07-30T01:30:48;22.40;74.50
24402;DHT22;12539;48.808;11.292;2022-07-30T01:33:16;22.60;73.40
24402;DHT22;12539;48.808;11.292;2022-07-30T01:35:45;22.80;72.30
24402;DHT22;12539;48.808;11.292;2022-07-30T01:38:13;23.00;71.70
24402;DHT22;12539;48.808;11.292;2022-07-30T01:40:42;23.10;71.10
24402;DHT22;12539;48.808;11.292;2022-07-30T01:43:09;23.10;71.00
24402;DHT22;12539;48.808;11.292;2022-07-30T01:45:35;23.00;71.00
24402;DHT22;12539;48.808;11.292;2022-07-30T01:48:03;23.00;71.10
24402;DHT22;12539;48.808;11.292;2022-07-30T01:50:30;23.10;71.20
24402;DHT22;12539;48.808;11.292;2022-07-30T01:52:57;23.10;71.10
24402;DHT22;12539;48.808;11.292;2022-07-30T01:55:30;23.10;71.10
24402;DHT22;12539;48.808;11.292;2022-07-30T01:57:58;23.10;71.00
24402;DHT22;12539;48.808;11.292;2022-07-30T02:00:25;23.10;71.20
24402;DHT22;12539;48.808;11.292;2022-07-30T02:02:52;23.00;71.70
24402;DHT22;12539;48.808;11.292;2022-07-30T02:05:19;22.90;71.90
24402;DHT22;12539;48.808;11.292;2022-07-30T02:07:49;22.90;72.20
24402;DHT22;12539;48.808;11.292;2022-07-30T02:13:02;23.00;71.70
24402;DHT22;12539;48.808;11.292;2022-07-30T02:16:05;23.10;72.10
24402;DHT22;12539;48.808;11.292;2022-07-30T02:18:37;23.10;71.00
24402;DHT22;12539;48.808;11.292;2022-07-30T02:21:07;23.20;70.70
24402;DHT22;12539;48.808;11.292;2022-07-30T02:23:42;23.20;70.50
24402;DHT22;12539;48.808;11.292;2022-07-30T02:26:12;23.20;70.50
24402;DHT22;12539;48.808;11.292;2022-07-30T02:28:41;23.20;70.50
24402;DHT22;12539;48.808;11.292;2022-07-30T02:31:09;23.20;70.30
24402;DHT22;12539;48.808;11.292;2022-07-30T02:33:39;23.20;70.00
24402;DHT22;12539;48.808;11.292;2022-07-30T02:36:06;23.20;69.90
24402;DHT22;12539;48.808;11.292;2022-07-30T02:38:34;23.20;69.80
24402;DHT22;12539;48.808;11.292;2022-07-30T02:41:01;23.20;70.00
24402;DHT22;12539;48.808;11.292;2022-07-30T02:43:29;23.10;70.30
24402;DHT22;12539;48.808;11.292;2022-07-30T02:45:57;23.10;70.20
24402;DHT22;12539;48.808;11.292;2022-07-30T02:48:24;23.10;70.20
24402;DHT22;12539;48.808;11.292;2022-07-30T02:50:53;23.10;70.10
24402;DHT22;12539;48.808;11.292;2022-07-30T02:53:21;23.10;70.10
24402;DHT22;12539;48.808;11.292;2022-07-30T02:55:48;23.10;70.00
24402;DHT22;12539;48.808;11.292;2022-07-30T02:58:18;23.20;70.70
24402;DHT22;12539;48.808;11.292;2022-07-30T03:00:46;23.20;69.80
24402;DHT22;12539;48.808;11.292;2022-07-30T03:03:13;23.20;69.50
24402;DHT22;12539;48.808;11.292;2022-07-30T03:05:40;23.30;69.30
24402;DHT22;12539;48.808;11.292;2022-07-30T03:08:06;23.30;69.10
24402;DHT22;12539;48.808;11.292;2022-07-30T03:10:33;23.30;69.00
24402;DHT22;12539;48.808;11.292;2022-07-30T03:13:03;23.30;69.10
24402;DHT22;12539;48.808;11.292;2022-07-30T03:15:32;23.20;69.40
24402;DHT22;12539;48.808;11.292;2022-07-30T03:17:59;23.20;69.40
24402;DHT22;12539;48.808;11.292;2022-07-30T03:20:29;23.20;69.40
24402;DHT22;12539;48.808;11.292;2022-07-30T03:22:58;23.30;69.20
24402;DHT22;12539;48.808;11.292;2022-07-30T03:25:27;23.40;68.90
24402;DHT22;12539;48.808;11.292;2022-07-30T03:27:55;23.40;68.80
24402;DHT22;12539;48.808;11.292;2022-07-30T03:30:24;23.50;68.60
24402;DHT22;12539;48.808;11.292;2022-07-30T03:32:51;23.60;68.50
24402;DHT22;12539;48.808;11.292;2022-07-30T03:35:19;23.70;68.20
24402;DHT22;12539;48.808;11.292;2022-07-30T03:37:48;23.70;67.80
24402;DHT22;12539;48.808;11.292;2022-07-30T03:40:14;23.80;67.50
24402;DHT22;12539;48.808;11.292;2022-07-30T03:42:41;23.80;67.30
24402;DHT22;12539;48.808;11.292;2022-07-30T03:45:08;23.80;67.10
24402;DHT22;12539;48.808;11.292;2022-07-30T03:47:36;23.80;66.90
24402;DHT22;12539;48.808;11.292;2022-07-30T03:50:04;23.80;66.80
24402;DHT22;12539;48.808;11.292;2022-07-30T03:52:33;23.90;66.70
24402;DHT22;12539;48.808;11.292;2022-07-30T03:54:59;23.90;66.40
24402;DHT22;12539;48.808;11.292;2022-07-30T03:57:26;23.90;66.20
24402;DHT22;12539;48.808;11.292;2022-07-30T03:59:52;23.90;66.00
24402;DHT22;12539;48.808;11.292;2022-07-30T04:02:18;23.90;65.80
24402;DHT22;12539;48.808;11.292;2022-07-30T04:04:44;23.90;65.70
24402;DHT22;12539;48.808;11.292;2022-07-30T04:07:10;23.90;65.70
24402;DHT22;12539;48.808;11.292;2022-07-30T04:09:36;23.90;65.60
24402;DHT22;12539;48.808;11.292;2022-07-30T04:12:02;23.90;65.50
24402;DHT22;12539;48.808;11.292;2022-07-30T04:14:42;23.90;65.30
24402;DHT22;12539;48.808;11.292;2022-07-30T04:17:10;23.90;65.30
24402;DHT22;12539;48.808;11.292;2022-07-30T04:19:56;23.90;65.60
24402;DHT22;12539;48.808;11.292;2022-07-30T04:22:29;23.90;65.60
24402;DHT22;12539;48.808;11.292;2022-07-30T04:24:56;23.90;65.70
24402;DHT22;12539;48.808;11.292;2022-07-30T04:27:24;24.00;65.60
24402;DHT22;12539;48.808;11.292;2022-07-30T04:29:52;24.00;65.40
24402;DHT22;12539;48.808;11.292;2022-07-30T04:32:18;24.00;65.30
24402;DHT22;12539;48.808;11.292;2022-07-30T04:34:49;24.00;65.30
24402;DHT22;12539;48.808;11.292;2022-07-30T04:37:20;24.10;65.20
24402;DHT22;12539;48.808;11.292;2022-07-30T04:39:46;24.10;65.10
24402;DHT22;12539;48.808;11.292;2022-07-30T04:42:15;24.10;64.90
24402;DHT22;12539;48.808;11.292;2022-07-30T04:44:41;24.10;64.80
24402;DHT22;12539;48.808;11.292;2022-07-30T04:47:07;24.10;64.80
24402;DHT22;12539;48.808;11.292;2022-07-30T04:49:33;24.10;64.90
24402;DHT22;12539;48.808;11.292;2022-07-30T04:52:01;24.20;65.00
24402;DHT22;12539;48.808;11.292;2022-07-30T04:54:39;24.30;64.80
24402;DHT22;12539;48.808;11.292;2022-07-30T04:57:09;24.30;64.50
24402;DHT22;12539;48.808;11.292;2022-07-30T04:59:36;24.20;64.30
24402;DHT22;12539;48.808;11.292;2022-07-30T05:02:03;24.20;64.40
24402;DHT22;12539;48.808;11.292;2022-07-30T05:04:31;24.10;64.60
24402;DHT22;12539;48.808;11.292;2022-07-30T05:06:59;24.10;64.80
24402;DHT22;12539;48.808;11.292;2022-07-30T05:09:26;24.00;65.10
24402;DHT22;12539;48.808;11.292;2022-07-30T05:11:52;24.00;65.70
24402;DHT22;12539;48.808;11.292;2022-07-30T05:14:20;24.00;65.80
24402;DHT22;12539;48.808;11.292;2022-07-30T05:16:46;23.90;65.90
24402;DHT22;12539;48.808;11.292;2022-07-30T05:19:11;23.90;66.20
24402;DHT22;12539;48.808;11.292;2022-07-30T05:21:38;23.90;66.30
24402;DHT22;12539;48.808;11.292;2022-07-30T05:24:04;23.80;66.70
24402;DHT22;12539;48.808;11.292;2022-07-30T05:26:30;23.80;67.00
24402;DHT22;12539;48.808;11.292;2022-07-30T05:28:59;23.80;67.10
24402;DHT22;12539;48.808;11.292;2022-07-30T05:31:25;23.60;68.10
24402;DHT22;12539;48.808;11.292;2022-07-30T05:33:51;23.30;69.30
24402;DHT22;12539;48.808;11.292;2022-07-30T05:36:17;23.00;70.80
24402;DHT22;12539;48.808;11.292;2022-07-30T05:38:43;22.80;72.20
24402;DHT22;12539;48.808;11.292;2022-07-30T05:41:09;22.60;73.40
24402;DHT22;12539;48.808;11.292;2022-07-30T05:43:35;22.50;74.70
24402;DHT22;12539;48.808;11.292;2022-07-30T05:46:00;22.40;75.60
24402;DHT22;12539;48.808;11.292;2022-07-30T05:48:27;22.30;76.10
24402;DHT22;12539;48.808;11.292;2022-07-30T05:50:53;22.20;76.60
24402;DHT22;12539;48.808;11.292;2022-07-30T05:53:18;22.10;77.20
24402;DHT22;12539;48.808;11.292;2022-07-30T05:55:44;22.20;77.30
24402;DHT22;12539;48.808;11.292;2022-07-30T05:58:10;22.40;77.10
24402;DHT22;12539;48.808;11.292;2022-07-30T06:00:36;22.60;76.00
24402;DHT22;12539;48.808;11.292;2022-07-30T06:03:02;22.90;75.20
24402;DHT22;12539;48.808;11.292;2022-07-30T06:05:28;23.10;73.90
24402;DHT22;12539;48.808;11.292;2022-07-30T06:07:54;23.30;73.30
24402;DHT22;12539;48.808;11.292;2022-07-30T06:10:19;23.30;72.90
24402;DHT22;12539;48.808;11.292;2022-07-30T06:12:45;23.30;73.30
24402;DHT22;12539;48.808;11.292;2022-07-30T06:15:11;23.30;73.10
24402;DHT22;12539;48.808;11.292;2022-07-30T06:17:44;23.50;72.30
24402;DHT22;12539;48.808;11.292;2022-07-30T06:20:11;23.60;71.60
24402;DHT22;12539;48.808;11.292;2022-07-30T06:22:38;23.80;71.00
24402;DHT22;12539;48.808;11.292;2022-07-30T06:25:05;24.60;69.00
24402;DHT22;12539;48.808;11.292;2022-07-30T06:27:31;26.20;64.40
24402;DHT22;12539;48.808;11.292;2022-07-30T06:30:05;28.40;58.50
24402;DHT22;12539;48.808;11.292;2022-07-30T06:32:31;30.20;53.40
24402;DHT22;12539;48.808;11.292;2022-07-30T06:34:57;31.80;49.50
24402;DHT22;12539;48.808;11.292;2022-07-30T06:37:23;33.00;46.50
24402;DHT22;12539;48.808;11.292;2022-07-30T06:39:49;33.90;44.50
24402;DHT22;12539;48.808;11.292;2022-07-30T06:42:14;34.50;42.90
24402;DHT22;12539;48.808;11.292;2022-07-30T06:44:40;35.20;41.30
24402;DHT22;12539;48.808;11.292;2022-07-30T06:47:06;35.80;39.80
24402;DHT22;12539;48.808;11.292;2022-07-30T06:49:32;36.60;38.30
24402;DHT22;12539;48.808;11.292;2022-07-30T06:51:58;37.20;36.90
24402;DHT22;12539;48.808;11.292;2022-07-30T06:54:24;37.80;35.40
24402;DHT22;12539;48.808;11.292;2022-07-30T06:56:50;38.60;33.90
24402;DHT22;12539;48.808;11.292;2022-07-30T06:59:16;39.10;32.30
24402;DHT22;12539;48.808;11.292;2022-07-30T07:01:42;39.00;32.10
24402;DHT22;12539;48.808;11.292;2022-07-30T07:04:07;38.60;32.50
24402;DHT22;12539;48.808;11.292;2022-07-30T07:06:33;37.60;33.40
24402;DHT22;12539;48.808;11.292;2022-07-30T07:08:59;35.80;35.50
24402;DHT22;12539;48.808;11.292;2022-07-30T07:11:25;34.30;37.70
24402;DHT22;12539;48.808;11.292;2022-07-30T07:13:51;33.30;39.60
24402;DHT22;12539;48.808;11.292;2022-07-30T07:16:17;32.70;40.70
24402;DHT22;12539;48.808;11.292;2022-07-30T07:18:47;32.90;40.20
24402;DHT22;12539;48.808;11.292;2022-07-30T07:21:14;33.40;39.60
24402;DHT22;12539;48.808;11.292;2022-07-30T07:23:39;33.00;40.20
24402;DHT22;12539;48.808;11.292;2022-07-30T07:26:05;32.10;41.80
24402;DHT22;12539;48.808;11.292;2022-07-30T07:28:31;31.40;43.20
24402;DHT22;12539;48.808;11.292;2022-07-30T07:30:56;30.80;44.00
24402;DHT22;12539;48.808;11.292;2022-07-30T07:33:22;30.60;44.80
24402;DHT22;12539;48.808;11.292;2022-07-30T07:35:48;30.30;45.10
24402;DHT22;12539;48.808;11.292;2022-07-30T07:38:14;30.10;45.50
24402;DHT22;12539;48.808;11.292;2022-07-30T07:40:39;29.90;46.00
24402;DHT22;12539;48.808;11.292;2022-07-30T07:43:05;29.80;46.30
24402;DHT22;12539;48.808;11.292;2022-07-30T07:45:31;29.80;46.30
24402;DHT22;12539;48.808;11.292;2022-07-30T07:47:56;29.80;46.50
24402;DHT22;12539;48.808;11.292;2022-07-30T07:50:22;29.60;46.10
24402;DHT22;12539;48.808;11.292;2022-07-30T07:52:48;29.30;46.90
24402;DHT22;12539;48.808;11.292;2022-07-30T07:55:14;28.90;48.20
24402;DHT22;12539;48.808;11.292;2022-07-30T07:57:40;28.60;49.10
24402;DHT22;12539;48.808;11.292;2022-07-30T08:00:08;28.30;49.70
24402;DHT22;12539;48.808;11.292;2022-07-30T08:02:34;28.10;50.60
24402;DHT22;12539;48.808;11.292;2022-07-30T08:05:00;28.00;51.00
24402;DHT22;12539;48.808;11.292;2022-07-30T08:07:26;27.90;51.10
24402;DHT22;12539;48.808;11.292;2022-07-30T08:09:51;27.90;51.50
24402;DHT22;12539;48.808;11.292;2022-07-30T08:12:17;27.90;50.80
24402;DHT22;12539;48.808;11.292;2022-07-30T08:14:43;27.80;50.70
24402;DHT22;12539;48.808;11.292;2022-07-30T08:17:09;27.80;51.20
24402;DHT22;12539;48.808;11.292;2022-07-30T08:19:34;27.70;51.50
24402;DHT22;12539;48.808;11.292;2022-07-30T08:22:02;27.70;51.80
24402;DHT22;12539;48.808;11.292;2022-07-30T08:24:28;27.80;51.20
24402;DHT22;12539;48.808;11.292;2022-07-30T08:26:53;28.10;50.50
24402;DHT22;12539;48.808;11.292;2022-07-30T08:29:19;28.30;50.60
24402;DHT22;12539;48.808;11.292;2022-07-30T08:31:45;28.30;50.50
24402;DHT22;12539;48.808;11.292;2022-07-30T08:34:11;28.20;49.90
24402;DHT22;12539;48.808;11.292;2022-07-30T08:36:37;28.10;49.70
24402;DHT22;12539;48.808;11.292;2022-07-30T08:39:03;28.10;50.00
24402;DHT22;12539;48.808;11.292;2022-07-30T08:41:30;28.10;50.10
24402;DHT22;12539;48.808;11.292;2022-07-30T08:43:59;28.10;50.30
24402;DHT22;12539;48.808;11.292;2022-07-30T08:46:27;28.10;50.10
24402;DHT22;12539;48.808;11.292;2022-07-30T08:48:54;28.10;50.30
24402;DHT22;12539;48.808;11.292;2022-07-30T08:51:20;28.10;50.30
24402;DHT22;12539;48.808;11.292;2022-07-30T08:53:46;28.00;50.50
24402;DHT22;12539;48.808;11.292;2022-07-30T08:56:13;27.90;50.60
24402;DHT22;12539;48.808;11.292;2022-07-30T08:58:38;27.90;50.50
24402;DHT22;12539;48.808;11.292;2022-07-30T09:01:06;27.80;50.70
24402;DHT22;12539;48.808;11.292;2022-07-30T09:03:32;27.70;51.10
24402;DHT22;12539;48.808;11.292;2022-07-30T09:05:59;27.70;50.80
24402;DHT22;12539;48.808;11.292;2022-07-30T09:08:25;27.80;50.50
24402;DHT22;12539;48.808;11.292;2022-07-30T09:10:51;28.00;50.30
24402;DHT22;12539;48.808;11.292;2022-07-30T09:15:49;28.10;49.70
24402;DHT22;12539;48.808;11.292;2022-07-30T09:20:53;28.20;49.50
24402;DHT22;12539;48.808;11.292;2022-07-30T09:23:19;28.20;49.20
24402;DHT22;12539;48.808;11.292;2022-07-30T09:25:46;28.40;48.60
24402;DHT22;12539;48.808;11.292;2022-07-30T09:28:13;28.50;47.70
24402;DHT22;12539;48.808;11.292;2022-07-30T09:30:49;28.60;47.30
24402;DHT22;12539;48.808;11.292;2022-07-30T09:33:32;28.50;47.60
24402;DHT22;12539;48.808;11.292;2022-07-30T09:35:58;28.40;48.30
24402;DHT22;12539;48.808;11.292;2022-07-30T09:38:24;28.40;48.10
24402;DHT22;12539;48.808;11.292;2022-07-30T09:40:51;28.50;46.90
24402;DHT22;12539;48.808;11.292;2022-07-30T09:43:17;28.70;46.20
24402;DHT22;12539;48.808;11.292;2022-07-30T09:45:51;29.00;44.80
24402;DHT22;12539;48.808;11.292;2022-07-30T09:48:25;29.10;44.70
24402;DHT22;12539;48.808;11.292;2022-07-30T09:50:53;29.10;43.70
24402;DHT22;12539;48.808;11.292;2022-07-30T09:53:19;29.10;44.00
24402;DHT22;12539;48.808;11.292;2022-07-30T09:55:47;29.10;44.10
24402;DHT22;12539;48.808;11.292;2022-07-30T09:58:14;29.20;43.50
24402;DHT22;12539;48.808;11.292;2022-07-30T10:00:40;29.40;43.20
24402;DHT22;12539;48.808;11.292;2022-07-30T10:03:20;29.60;42.50
24402;DHT22;12539;48.808;11.292;2022-07-30T10:06:04;29.60;41.70
24402;DHT22;12539;48.808;11.292;2022-07-30T10:08:39;29.60;41.30
24402;DHT22;12539;48.808;11.292;2022-07-30T10:11:08;29.60;40.70
24402;DHT22;12539;48.808;11.292;2022-07-30T10:13:35;29.50;40.90
24402;DHT22;12539;48.808;11.292;2022-07-30T10:16:01;29.50;41.70
24402;DHT22;12539;48.808;11.292;2022-07-30T10:18:27;29.40;41.50
24402;DHT22;12539;48.808;11.292;2022-07-30T10:20:54;29.30;41.10
24402;DHT22;12539;48.808;11.292;2022-07-30T10:23:20;29.30;40.80
24402;DHT22;12539;48.808;11.292;2022-07-30T10:25:46;29.40;39.80
24402;DHT22;12539;48.808;11.292;2022-07-30T10:28:13;29.60;40.00
24402;DHT22;12539;48.808;11.292;2022-07-30T10:30:40;29.70;39.20
24402;DHT22;12539;48.808;11.292;2022-07-30T10:33:06;29.90;39.10
24402;DHT22;12539;48.808;11.292;2022-07-30T10:35:33;30.00;38.50
24402;DHT22;12539;48.808;11.292;2022-07-30T10:37:59;30.00;38.70
24402;DHT22;12539;48.808;11.292;2022-07-30T10:48:26;29.90;37.40
24402;DHT22;12539;48.808;11.292;2022-07-30T10:50:56;29.80;37.70
24402;DHT22;12539;48.808;11.292;2022-07-30T10:56:27;29.60;37.80
24402;DHT22;12539;48.808;11.292;2022-07-30T10:59:11;29.60;38.60
24402;DHT22;12539;48.808;11.292;2022-07-30T11:02:07;29.80;38.20
24402;DHT22;12539;48.808;11.292;2022-07-30T11:04:33;29.80;38.10
24402;DHT22;12539;48.808;11.292;2022-07-30T11:09:43;29.70;37.50
24402;DHT22;12539;48.808;11.292;2022-07-30T11:12:09;29.60;37.10
24402;DHT22;12539;48.808;11.292;2022-07-30T11:17:16;29.40;36.90
24402;DHT22;12539;48.808;11.292;2022-07-30T11:22:31;29.60;36.90
24402;DHT22;12539;48.808;11.292;2022-07-30T11:25:04;29.60;37.40
24402;DHT22;12539;48.808;11.292;2022-07-30T11:27:45;29.60;36.70
24402;DHT22;12539;48.808;11.292;2022-07-30T11:32:43;29.60;37.40
24402;DHT22;12539;48.808;11.292;2022-07-30T11:35:13;29.70;37.70
24402;DHT22;12539;48.808;11.292;2022-07-30T11:38:05;29.80;36.90
24402;DHT22;12539;48.808;11.292;2022-07-30T11:40:38;29.90;36.20
24402;DHT22;12539;48.808;11.292;2022-07-30T11:43:20;30.00;36.60
24402;DHT22;12539;48.808;11.292;2022-07-30T11:45:51;30.10;36.80
24402;DHT22;12539;48.808;11.292;2022-07-30T11:48:19;29.90;37.20
24402;DHT22;12539;48.808;11.292;2022-07-30T11:50:47;29.90;37.00
24402;DHT22;12539;48.808;11.292;2022-07-30T11:53:16;29.90;36.80
24402;DHT22;12539;48.808;11.292;2022-07-30T11:55:45;29.70;37.20
24402;DHT22;12539;48.808;11.292;2022-07-30T11:58:36;29.50;36.60
24402;DHT22;12539;48.808;11.292;2022-07-30T12:01:11;29.40;36.40
24402;DHT22;12539;48.808;11.292;2022-07-30T12:03:40;29.50;36.10
24402;DHT22;12539;48.808;11.292;2022-07-30T12:06:08;29.50;36.00
24402;DHT22;12539;48.808;11.292;2022-07-30T12:08:58;29.70;35.50
24402;DHT22;12539;48.808;11.292;2022-07-30T12:11:31;29.70;34.90
24402;DHT22;12539;48.808;11.292;2022-07-30T12:14:00;29.50;35.40
24402;DHT22;12539;48.808;11.292;2022-07-30T12:16:28;29.50;36.20
24402;DHT22;12539;48.808;11.292;2022-07-30T12:18:54;29.30;36.40
24402;DHT22;12539;48.808;11.292;2022-07-30T12:21:20;29.30;35.40
24402;DHT22;12539;48.808;11.292;2022-07-30T12:24:03;29.30;35.90
24402;DHT22;12539;48.808;11.292;2022-07-30T12:26:32;29.50;35.80
24402;DHT22;12539;48.808;11.292;2022-07-30T12:29:01;29.50;35.10
24402;DHT22;12539;48.808;11.292;2022-07-30T12:31:28;29.60;35.70
24402;DHT22;12539;48.808;11.292;2022-07-30T12:33:53;29.60;35.20
24402;DHT22;12539;48.808;11.292;2022-07-30T12:36:27;29.60;34.50
24402;DHT22;12539;48.808;11.292;2022-07-30T12:38:54;29.50;33.50
24402;DHT22;12539;48.808;11.292;2022-07-30T12:41:22;29.50;33.80
24402;DHT22;12539;48.808;11.292;2022-07-30T12:43:53;29.50;34.50
24402;DHT22;12539;48.808;11.292;2022-07-30T12:46:24;29.60;34.30
24402;DHT22;12539;48.808;11.292;2022-07-30T12:49:02;29.70;33.60
24402;DHT22;12539;48.808;11.292;2022-07-30T12:51:32;29.90;34.00
24402;DHT22;12539;48.808;11.292;2022-07-30T12:53:58;29.90;33.70
24402;DHT22;12539;48.808;11.292;2022-07-30T12:56:28;29.90;33.40
24402;DHT22;12539;48.808;11.292;2022-07-30T12:58:56;29.90;33.50
24402;DHT22;12539;48.808;11.292;2022-07-30T13:01:38;30.00;33.50
24402;DHT22;12539;48.808;11.292;2022-07-30T13:04:04;30.10;34.00
24402;DHT22;12539;48.808;11.292;2022-07-30T13:06:30;30.20;34.20
24402;DHT22;12539;48.808;11.292;2022-07-30T13:08:57;30.30;33.80
24402;DHT22;12539;48.808;11.292;2022-07-30T13:11:37;30.40;33.50
24402;DHT22;12539;48.808;11.292;2022-07-30T13:14:03;30.40;32.40
24402;DHT22;12539;48.808;11.292;2022-07-30T13:16:34;30.40;32.60
24402;DHT22;12539;48.808;11.292;2022-07-30T13:19:02;30.50;33.40
24402;DHT22;12539;48.808;11.292;2022-07-30T13:21:28;30.50;32.90
24402;DHT22;12539;48.808;11.292;2022-07-30T13:23:54;30.40;33.20
24402;DHT22;12539;48.808;11.292;2022-07-30T13:26:19;30.40;34.20
24402;DHT22;12539;48.808;11.292;2022-07-30T13:28:45;30.50;33.70
24402;DHT22;12539;48.808;11.292;2022-07-30T13:31:11;30.60;33.30
24402;DHT22;12539;48.808;11.292;2022-07-30T13:33:39;30.60;33.30
24402;DHT22;12539;48.808;11.292;2022-07-30T13:36:05;30.50;32.90
24402;DHT22;12539;48.808;11.292;2022-07-30T13:38:32;30.40;33.10
24402;DHT22;12539;48.808;11.292;2022-07-30T13:40:58;30.40;33.50
24402;DHT22;12539;48.808;11.292;2022-07-30T13:43:24;30.50;34.00
24402;DHT22;12539;48.808;11.292;2022-07-30T13:45:51;30.60;33.40
24402;DHT22;12539;48.808;11.292;2022-07-30T13:48:20;30.70;33.20
24402;DHT22;12539;48.808;11.292;2022-07-30T13:50:46;30.50;32.30
24402;DHT22;12539;48.808;11.292;2022-07-30T13:53:12;30.40;32.70
24402;DHT22;12539;48.808;11.292;2022-07-30T13:55:38;30.50;33.10
24402;DHT22;12539;48.808;11.292;2022-07-30T13:58:05;30.60;32.60
24402;DHT22;12539;48.808;11.292;2022-07-30T14:00:32;30.80;32.60
24402;DHT22;12539;48.808;11.292;2022-07-30T14:03:02;30.80;32.40
24402;DHT22;12539;48.808;11.292;2022-07-30T14:05:28;30.80;32.50
24402;DHT22;12539;48.808;11.292;2022-07-30T14:07:54;30.70;32.50
24402;DHT22;12539;48.808;11.292;2022-07-30T14:10:20;30.70;32.60
24402;DHT22;12539;48.808;11.292;2022-07-30T14:12:51;30.60;32.50
24402;DHT22;12539;48.808;11.292;2022-07-30T14:15:21;30.60;32.40
24402;DHT22;12539;48.808;11.292;2022-07-30T14:17:48;30.70;32.40
24402;DHT22;12539;48.808;11.292;2022-07-30T14:20:14;30.80;32.00
24402;DHT22;12539;48.808;11.292;2022-07-30T14:22:40;30.90;32.00
24402;DHT22;12539;48.808;11.292;2022-07-30T14:25:07;30.90;31.60
24402;DHT22;12539;48.808;11.292;2022-07-30T14:27:33;31.00;31.70
24402;DHT22;12539;48.808;11.292;2022-07-30T14:29:59;31.10;31.60
24402;DHT22;12539;48.808;11.292;2022-07-30T14:32:26;31.20;31.60
24402;DHT22;12539;48.808;11.292;2022-07-30T14:34:52;31.10;31.10
24402;DHT22;12539;48.808;11.292;2022-07-30T14:37:17;31.00;30.60
24402;DHT22;12539;48.808;11.292;2022-07-30T14:39:43;30.90;31.30
24402;DHT22;12539;48.808;11.292;2022-07-30T14:42:09;30.80;32.30
24402;DHT22;12539;48.808;11.292;2022-07-30T14:44:35;30.90;31.70
24402;DHT22;12539;48.808;11.292;2022-07-30T14:47:01;31.00;31.30
24402;DHT22;12539;48.808;11.292;2022-07-30T14:49:27;31.00;31.30
24402;DHT22;12539;48.808;11.292;2022-07-30T14:51:52;30.90;31.30
24402;DHT22;12539;48.808;11.292;2022-07-30T14:54:18;30.80;32.10
24402;DHT22;12539;48.808;11.292;2022-07-30T14:56:44;30.70;32.10
24402;DHT22;12539;48.808;11.292;2022-07-30T14:59:10;30.60;31.30
24402;DHT22;12539;48.808;11.292;2022-07-30T15:01:36;30.40;31.30
24402;DHT22;12539;48.808;11.292;2022-07-30T15:04:02;30.20;32.00
24402;DHT22;12539;48.808;11.292;2022-07-30T15:06:27;30.20;32.00
24402;DHT22;12539;48.808;11.292;2022-07-30T15:08:53;30.30;32.40
24402;DHT22;12539;48.808;11.292;2022-07-30T15:11:19;30.40;32.50
24402;DHT22;12539;48.808;11.292;2022-07-30T15:13:45;30.50;31.70
24402;DHT22;12539;48.808;11.292;2022-07-30T15:16:10;30.50;31.20
24402;DHT22;12539;48.808;11.292;2022-07-30T15:18:36;30.50;31.60
24402;DHT22;12539;48.808;11.292;2022-07-30T15:21:02;30.60;32.20
24402;DHT22;12539;48.808;11.292;2022-07-30T15:23:28;30.70;32.10
24402;DHT22;12539;48.808;11.292;2022-07-30T15:25:54;30.90;32.20
24402;DHT22;12539;48.808;11.292;2022-07-30T15:28:20;31.00;32.30
24402;DHT22;12539;48.808;11.292;2022-07-30T15:30:46;31.10;31.40
24402;DHT22;12539;48.808;11.292;2022-07-30T15:33:12;31.10;31.50
24402;DHT22;12539;48.808;11.292;2022-07-30T15:35:37;31.00;30.70
24402;DHT22;12539;48.808;11.292;2022-07-30T15:38:03;30.90;31.10
24402;DHT22;12539;48.808;11.292;2022-07-30T15:40:29;30.80;30.30
24402;DHT22;12539;48.808;11.292;2022-07-30T15:42:55;30.70;31.00
24402;DHT22;12539;48.808;11.292;2022-07-30T15:45:20;30.60;30.00
24402;DHT22;12539;48.808;11.292;2022-07-30T15:47:49;30.40;31.10
24402;DHT22;12539;48.808;11.292;2022-07-30T15:50:15;30.30;31.20
24402;DHT22;12539;48.808;11.292;2022-07-30T15:52:42;30.20;31.90
24402;DHT22;12539;48.808;11.292;2022-07-30T15:55:08;30.30;32.50